LiveATC.Net - Listen to live air traffic control over the Internet! Contact for advertising information

ICAO: KDAL  IATA: DAL   Airport: Dallas Love Field Airport
City: Dallas   State/Province: Texas
Country: United States   Continent: North America
KDAL METAR Weather: KDAL 132053Z VRB04KT 10SM CLR 31/M01 A2998 RMK AO2 SLP146 T03111006 56026
KDAL Flight Activity (FlightAware)
KDAL Airport Info   (AirNav) (iFlightPlanner)
KDAL VFR Sectional Chart   (iFlightPlanner) 
KDAL IFR Low Chart   (iFlightPlanner) 
KDAL Tower
Feed Status: UP   Listeners: 2
Listen right in your browser - requires Flash (in browser, requires Flash)
Click here to listen with your own player (launches your MP3 player)
KDAL Tower Audio Archives
Love Tower123.700


Unauthorized use prohibited. See Terms of Service

Find LiveATC Audio Streams

Airport/ARTCC Code

(e.g., 124.400, 128.75)
Site-wide search

Browse LiveATC Feeds
LiveATC Coverage Map
Top 50 LiveATC Feeds
Bad Weather Areas

Offer a LiveATC Feed
Press Inquiries

LiveATC on iPhone
LiveATC on Android

Windows Phone
Windows 8/10

LiveATC Mobile
(Mobile browser)

ATC Audio Archives
Interesting Recordings

LiveATC Forums

Home Page
Make a Donation
LiveATC Bookstore

Terms of Use
Privacy Policy

ATC/Radar Sites
U.S. ARTCC Freqs
Canadian Air Freqs


FAA Airport Status
Nat'l Airspace Status
Arrival Demand Charts

Server Software By:

Please make a donation to help us keep growing!